createdAt,value
2018-08-03T00:52:07.427Z,60.35
2018-08-03T00:57:44.517Z,61.93
2018-08-03T01:28:05.455Z,62.94
2018-08-03T01:44:25.166Z,61.96
2018-08-03T01:48:03.684Z,62.54
2018-08-03T02:08:27.047Z,62.41
2018-08-03T02:21:33.919Z,62.16
2018-08-03T02:31:27.885Z,62.15
2018-08-03T02:37:10.196Z,63.06
2018-08-03T02:43:04.704Z,64.76
2018-08-03T02:45:54.730Z,64.31
2018-08-03T02:48:30.110Z,64.80
2018-08-03T02:54:02.653Z,64.57
2018-08-03T02:56:49.599Z,64.67
2018-08-03T03:10:37.134Z,64.20
2018-08-03T03:13:32.988Z,64.08
2018-08-03T03:16:10.817Z,65.00
2018-08-03T03:18:53.761Z,64.37
2018-08-03T03:34:21.998Z,65.37
2018-08-03T03:37:10.076Z,65.90
2018-08-03T03:40:06.136Z,65.77
2018-08-03T03:43:02.416Z,65.69
2018-08-03T03:45:39.373Z,66.33
2018-08-03T03:48:11.404Z,66.98
2018-08-03T03:50:44.639Z,68.44
2018-08-03T03:53:17.356Z,67.81
2018-08-03T03:55:51.314Z,69.35
2018-08-03T04:26:39.200Z,69.48
2018-08-03T04:29:38.797Z,70.12
2018-08-03T04:32:31.628Z,69.04
2018-08-03T04:35:47.056Z,70.02
2018-08-03T04:38:40.179Z,69.66
2018-08-03T04:41:29.366Z,69.44
2018-08-03T04:44:36.754Z,69.79
2018-08-03T04:47:07.964Z,69.16
2018-08-03T04:53:15.949Z,69.62
2018-08-03T04:55:49.094Z,68.37
2018-08-03T04:58:23.094Z,68.66
2018-08-03T05:03:35.392Z,67.75
2018-08-03T05:06:07.299Z,67.65
2018-08-03T05:08:45.237Z,66.91
2018-08-03T05:11:21.383Z,66.79
2018-08-03T05:14:01.053Z,66.44
2018-08-03T05:16:35.708Z,66.53
2018-08-03T05:19:12.033Z,66.23
2018-08-03T05:21:51.679Z,65.86
2018-08-03T05:24:44.481Z,66.48
2018-08-03T05:27:33.909Z,65.12
2018-08-03T05:33:26.574Z,65.77
2018-08-03T05:36:04.909Z,64.35
2018-08-03T05:39:05.194Z,64.61
2018-08-03T05:41:42.587Z,63.88
2018-08-03T05:47:04.611Z,62.31
2018-08-03T05:49:45.117Z,62.19
2018-08-03T05:52:42.829Z,63.64
2018-08-03T05:55:43.009Z,62.04
2018-08-03T05:58:25.463Z,63.07
2018-08-03T06:01:08.936Z,62.98
2018-08-03T06:03:57.207Z,61.34
2018-08-03T06:06:40.626Z,61.29
2018-08-03T06:09:31.308Z,60.92
2018-08-03T06:12:14.400Z,60.96
2018-08-03T06:15:03.530Z,59.87
2018-08-03T06:20:25.637Z,58.96
2018-08-03T06:23:07.019Z,58.70
2018-08-03T06:25:51.013Z,57.20
2018-08-03T06:35:02.018Z,57.12
2018-08-03T06:41:07.615Z,55.63
2018-08-03T06:43:50.316Z,54.54
2018-08-03T08:04:53.822Z,33.92
2018-08-03T08:07:24.114Z,33.18
2018-08-03T08:10:18.965Z,32.55
2018-08-03T08:13:28.027Z,32.17
2018-08-03T08:16:23.211Z,31.43
2018-08-03T08:19:03.155Z,34.86
2018-08-03T08:27:06.742Z,33.04
2018-08-03T08:55:29.864Z,31.98
2018-08-03T08:58:25.674Z,34.26
2018-08-03T09:11:37.597Z,42.19
2018-08-03T09:35:27.635Z,41.49
2018-08-03T10:00:24.081Z,38.47
2018-08-03T10:26:54.350Z,41.25
2018-08-03T10:29:43.831Z,40.60
2018-08-03T10:35:40.648Z,40.23
2018-08-03T10:57:33.100Z,39.68
2018-08-03T11:54:56.801Z,48.71
2018-08-03T11:57:31.495Z,48.62
2018-08-03T12:00:04.024Z,48.61
2018-08-03T12:02:35.566Z,50.10
2018-08-03T12:05:08.202Z,49.09
2018-08-03T12:07:40.777Z,49.44
2018-08-03T12:10:13.870Z,48.29
2018-08-03T12:12:47.366Z,48.51
2018-08-03T12:15:25.729Z,47.41
2018-08-03T12:18:07.941Z,47.68
2018-08-03T12:21:24.057Z,47.62
2018-08-03T12:27:11.652Z,48.22
2018-08-03T12:29:52.335Z,47.69
2018-08-03T12:32:41.308Z,48.11
2018-08-03T12:35:18.004Z,46.16
2018-08-03T12:41:11.512Z,46.93
2018-08-03T12:46:25.574Z,46.83
2018-08-03T12:51:39.117Z,46.35
2018-08-03T12:54:14.465Z,47.94
2018-08-03T12:57:07.524Z,48.61
2018-08-03T13:02:44.586Z,47.53
2018-08-03T13:05:36.968Z,47.92
2018-08-03T13:43:57.190Z,49.30
2018-08-03T13:46:38.306Z,49.96
2018-08-03T13:49:35.849Z,49.83
2018-08-03T13:52:20.600Z,48.40
2018-08-03T13:55:30.157Z,47.04
2018-08-03T14:01:31.717Z,47.84
2018-08-03T14:04:03.018Z,48.36
2018-08-03T14:06:40.265Z,48.13
2018-08-03T14:09:19.201Z,48.21
2018-08-03T14:11:55.147Z,46.88
2018-08-03T14:14:31.915Z,46.38
2018-08-03T14:17:03.012Z,45.54
2018-08-03T14:19:42.089Z,46.00
2018-08-03T14:22:12.778Z,46.11
2018-08-03T14:24:43.637Z,46.54
2018-08-03T14:27:17.585Z,46.49
2018-08-03T14:29:48.229Z,46.57
2018-08-03T14:32:40.766Z,45.26
2018-08-03T14:35:11.441Z,46.44
2018-08-03T14:37:59.880Z,45.71
2018-08-03T14:40:34.306Z,45.82
2018-08-03T14:43:09.060Z,45.87
2018-08-03T14:45:39.961Z,46.21
2018-08-03T14:48:22.799Z,45.01
2018-08-03T14:50:54.872Z,44.92
2018-08-03T14:53:26.715Z,44.69
2018-08-03T14:56:15.668Z,45.54
2018-08-03T14:58:50.996Z,46.03
2018-08-03T15:01:27.043Z,46.15
2018-08-03T15:04:02.875Z,45.21
2018-08-03T15:06:40.225Z,46.06
2018-08-03T15:09:13.596Z,44.90
2018-08-03T15:11:46.348Z,45.07
2018-08-03T15:14:23.108Z,45.27
2018-08-03T15:17:03.570Z,46.03
2018-08-03T15:19:46.473Z,46.46
2018-08-03T15:22:24.870Z,46.67
2018-08-03T15:24:59.443Z,47.17
2018-08-03T15:27:32.854Z,46.23
2018-08-03T15:30:09.582Z,46.97
2018-08-03T15:32:58.486Z,47.21
2018-08-03T15:38:33.375Z,46.76
2018-08-03T15:41:19.126Z,46.86
2018-08-03T15:44:05.763Z,46.91
2018-08-03T15:46:43.667Z,45.90
2018-08-03T15:49:15.670Z,46.59
2018-08-03T15:51:46.054Z,47.08
2018-08-03T15:54:20.746Z,46.61
2018-08-03T15:56:52.844Z,45.64
2018-08-03T15:59:26.722Z,46.10
2018-08-03T16:02:18.029Z,45.67
2018-08-03T16:04:57.256Z,45.11
2018-08-03T16:07:42.888Z,45.84
2018-08-03T16:10:48.612Z,45.89
2018-08-03T16:13:35.255Z,45.09
2018-08-03T16:16:17.561Z,43.94
2018-08-03T16:19:02.846Z,44.76
2018-08-03T16:21:43.387Z,44.33
2018-08-03T16:24:17.347Z,45.41
2018-08-03T16:26:51.329Z,44.51
2018-08-03T16:32:12.303Z,45.11
2018-08-03T16:37:43.224Z,45.08
2018-08-03T16:40:21.348Z,44.69
2018-08-03T16:42:57.708Z,43.69
2018-08-03T16:45:33.714Z,44.50
2018-08-03T16:48:09.032Z,43.89
2018-08-03T16:50:47.313Z,42.36
2018-08-03T16:53:19.273Z,44.01
2018-08-03T16:55:49.953Z,44.38
2018-08-03T16:58:20.980Z,44.28
2018-08-03T17:00:52.212Z,43.11
2018-08-03T17:03:33.868Z,44.69
2018-08-03T17:06:06.193Z,44.67
2018-08-03T17:08:37.620Z,43.86
2018-08-03T17:11:14.825Z,43.79
2018-08-03T17:13:47.375Z,43.46
2018-08-03T17:18:55.630Z,44.61
2018-08-03T17:21:26.052Z,43.82
2018-08-03T17:23:57.861Z,44.40
2018-08-03T17:26:34.013Z,44.84
2018-08-03T17:29:08.458Z,45.77
2018-08-03T17:31:39.881Z,44.06
2018-08-03T17:34:10.539Z,44.81
2018-08-03T17:36:40.804Z,45.60
2018-08-03T17:39:13.086Z,45.48
2018-08-03T17:41:44.070Z,46.21
2018-08-03T17:44:16.534Z,45.14
2018-08-03T17:46:49.340Z,45.18
2018-08-03T17:49:24.718Z,43.88
2018-08-03T17:51:55.385Z,45.41
2018-08-03T17:54:26.169Z,44.59
2018-08-03T17:56:57.253Z,45.24
2018-08-03T17:59:28.968Z,45.08
2018-08-03T18:02:01.167Z,43.79
2018-08-03T18:04:35.743Z,44.40
2018-08-03T18:07:09.369Z,45.43
2018-08-03T18:10:24.476Z,45.11
2018-08-03T18:12:55.337Z,44.92
2018-08-03T18:15:31.382Z,45.20
2018-08-03T18:18:08.557Z,44.69
2018-08-03T18:20:42.522Z,45.25
2018-08-03T18:29:04.914Z,45.16
2018-08-03T18:31:36.351Z,44.68
2018-08-03T18:34:08.158Z,44.23
2018-08-03T18:36:41.104Z,43.57
2018-08-03T18:39:14.660Z,43.25
2018-08-03T18:41:46.144Z,43.63
2018-08-03T18:44:16.976Z,43.72
2018-08-03T18:46:47.951Z,42.87
2018-08-03T18:49:21.230Z,43.18
2018-08-03T18:51:51.984Z,43.22
2018-08-03T18:54:24.127Z,42.90
2018-08-03T18:56:54.883Z,43.41
2018-08-03T18:59:38.320Z,43.30
2018-08-03T19:02:14.989Z,42.57
2018-08-03T19:04:45.727Z,43.28
2018-08-03T19:07:16.750Z,42.50
2018-08-03T19:09:47.368Z,42.80
2018-08-03T19:12:17.915Z,43.74
2018-08-03T19:14:48.838Z,42.95
2018-08-03T19:17:27.260Z,44.24
2018-08-03T19:19:57.884Z,43.77
2018-08-03T19:22:29.295Z,44.36
2018-08-03T19:25:01.146Z,44.18
2018-08-03T19:27:31.773Z,44.57
2018-08-03T19:30:02.814Z,45.52
2018-08-03T19:32:33.157Z,46.06
2018-08-03T19:35:05.876Z,45.64
2018-08-03T19:37:39.195Z,45.48
2018-08-03T19:40:10.220Z,45.29
2018-08-03T19:42:40.844Z,45.23
2018-08-03T19:45:17.093Z,45.92
2018-08-03T19:47:48.046Z,46.16
2018-08-03T19:50:20.394Z,46.05
2018-08-03T19:52:53.892Z,46.68
2018-08-03T19:55:28.814Z,46.07
2018-08-03T19:58:07.788Z,46.75
2018-08-03T20:00:40.476Z,47.39
2018-08-03T20:03:12.812Z,47.46
2018-08-03T20:05:51.165Z,47.00
2018-08-03T20:08:24.110Z,47.23
2018-08-03T20:14:18.365Z,47.33
2018-08-03T20:16:51.214Z,47.25
2018-08-03T20:19:22.899Z,48.07
2018-08-03T20:22:34.296Z,47.48
2018-08-03T20:28:09.830Z,47.37
2018-08-03T20:41:31.745Z,50.75
2018-08-03T20:44:32.167Z,51.56
2018-08-03T21:22:44.618Z,57.06
2018-08-03T21:25:27.621Z,57.27
2018-08-03T21:28:18.554Z,58.07
2018-08-03T21:31:04.317Z,57.73
2018-08-03T21:33:54.725Z,59.18
2018-08-03T21:36:27.263Z,59.07
2018-08-03T21:41:49.268Z,59.81
2018-08-03T21:44:47.521Z,59.94
2018-08-03T22:15:32.541Z,62.79
2018-08-03T22:18:25.929Z,63.54
2018-08-03T22:21:19.472Z,62.63
2018-08-03T22:25:26.157Z,63.96
2018-08-03T22:31:35.006Z,64.97
2018-08-03T22:34:27.514Z,65.22
